createdAt,value
2019-04-03T00:00:42.609Z,98.40
2019-04-03T00:03:15.859Z,98.40
2019-04-03T00:05:52.012Z,97.90
2019-04-03T00:08:25.375Z,97.80
2019-04-03T00:10:58.304Z,97.80
2019-04-03T00:13:31.566Z,97.30
2019-04-03T00:16:04.459Z,97.20
2019-04-03T00:18:37.573Z,97.20
2019-04-03T00:21:11.725Z,96.90
2019-04-03T00:23:45.125Z,96.90
2019-04-03T00:26:22.567Z,96.20
2019-04-03T00:28:55.088Z,95.40
2019-04-03T00:31:28.182Z,95.40
2019-04-03T00:34:02.623Z,95.30
2019-04-03T00:36:38.086Z,94.70
2019-04-03T00:39:12.057Z,94.50
2019-04-03T00:41:45.182Z,94.80
2019-04-03T00:44:18.375Z,94.00
2019-04-03T00:46:53.875Z,93.80
2019-04-03T00:49:27.434Z,93.80
2019-04-03T00:52:00.352Z,92.90
2019-04-03T00:54:33.784Z,92.00
2019-04-03T00:57:07.313Z,91.30
2019-04-03T00:59:41.100Z,91.00
2019-04-03T01:02:16.309Z,90.70
2019-04-03T01:04:49.741Z,91.10
2019-04-03T01:07:22.524Z,90.50
2019-04-03T01:09:56.082Z,90.10
2019-04-03T01:12:31.272Z,89.70
2019-04-03T01:15:06.839Z,89.30
2019-04-03T01:17:39.834Z,90.20
2019-04-03T01:20:15.894Z,87.60
2019-04-03T01:22:50.920Z,88.20
2019-04-03T01:25:23.743Z,90.00
2019-04-03T01:28:00.840Z,89.00
2019-04-03T01:30:32.501Z,86.80
2019-04-03T01:33:06.046Z,86.40
2019-04-03T01:35:39.079Z,87.00
2019-04-03T01:38:12.163Z,87.00
2019-04-03T01:40:45.500Z,86.70
2019-04-03T01:43:18.401Z,83.30
2019-04-03T01:45:51.761Z,86.00
2019-04-03T01:48:24.935Z,84.80
2019-04-03T01:50:59.589Z,84.70
2019-04-03T01:53:33.162Z,83.30
2019-04-03T01:56:11.628Z,81.80
2019-04-03T01:58:42.067Z,83.60
2019-04-03T02:01:15.407Z,83.20
2019-04-03T02:03:48.670Z,80.10
2019-04-03T02:06:22.366Z,81.80
2019-04-03T02:08:55.229Z,77.90
2019-04-03T02:11:28.458Z,79.20
2019-04-03T02:14:01.438Z,79.40
2019-04-03T02:16:34.684Z,77.70
2019-04-03T02:19:07.855Z,75.80
2019-04-03T02:21:41.047Z,76.40
2019-04-03T02:24:15.224Z,76.80
2019-04-03T02:26:48.443Z,76.20
2019-04-03T02:29:21.542Z,75.30
2019-04-03T02:31:54.698Z,74.90
2019-04-03T02:34:34.240Z,71.10
2019-04-03T02:37:02.885Z,71.40
2019-04-03T02:39:36.017Z,69.70
2019-04-03T02:42:09.878Z,68.20
2019-04-03T02:44:43.063Z,67.10
2019-04-03T02:47:16.317Z,69.70
2019-04-03T02:49:50.226Z,67.40
2019-04-03T02:52:25.318Z,67.10
2019-04-03T02:54:57.649Z,66.70
2019-04-03T02:57:30.961Z,67.30
2019-04-03T03:00:04.032Z,69.70
2019-04-03T03:02:37.117Z,69.40
2019-04-03T03:05:28.189Z,68.20
2019-04-03T03:07:59.496Z,70.70
2019-04-03T03:10:32.569Z,72.10
2019-04-03T03:13:06.266Z,71.10
2019-04-03T03:15:39.012Z,72.50
2019-04-03T03:18:12.562Z,72.20
2019-04-03T03:20:45.275Z,70.70
2019-04-03T03:23:22.323Z,68.80
2019-04-03T03:25:53.294Z,71.10
2019-04-03T03:28:26.674Z,66.80
2019-04-03T03:31:03.632Z,70.50
2019-04-03T03:33:38.372Z,70.20
2019-04-03T03:36:08.427Z,65.90
2019-04-03T03:38:42.010Z,66.90
2019-04-03T03:41:15.288Z,68.40
2019-04-03T03:43:48.570Z,68.70
2019-04-03T03:46:23.913Z,70.20
2019-04-03T03:48:56.288Z,70.50
2019-04-03T03:51:31.134Z,70.50
2019-04-03T03:54:05.655Z,70.70
2019-04-03T03:56:39.141Z,72.30
2019-04-03T03:59:16.332Z,73.00
2019-04-03T04:01:46.647Z,72.90
2019-04-03T04:04:19.814Z,71.70
2019-04-03T04:06:53.234Z,69.70
2019-04-03T04:09:26.732Z,69.10
2019-04-03T04:12:02.130Z,70.00
2019-04-03T04:14:34.881Z,67.90
2019-04-03T04:17:09.497Z,70.20
2019-04-03T04:19:42.084Z,70.60
2019-04-03T04:22:16.754Z,70.40
2019-04-03T04:24:50.460Z,70.50
2019-04-03T04:27:23.724Z,72.00
2019-04-03T04:29:57.209Z,71.70
2019-04-03T04:32:32.903Z,72.30
2019-04-03T04:35:06.249Z,71.10
2019-04-03T04:37:40.730Z,71.40
2019-04-03T04:40:14.784Z,72.20
2019-04-03T04:42:47.955Z,73.20
2019-04-03T04:45:21.215Z,74.60
2019-04-03T04:47:54.485Z,74.40
2019-04-03T04:50:27.902Z,76.40
2019-04-03T04:53:01.123Z,75.50
2019-04-03T04:55:35.092Z,74.20
2019-04-03T04:58:09.681Z,74.90
2019-04-03T05:00:43.056Z,74.30
2019-04-03T05:03:16.162Z,74.30
2019-04-03T05:05:49.441Z,73.50
2019-04-03T05:08:22.571Z,73.50
2019-04-03T05:10:56.078Z,74.10
2019-04-03T05:13:29.113Z,74.40
2019-04-03T05:16:02.671Z,74.10
2019-04-03T05:18:35.701Z,74.50
2019-04-03T05:21:09.990Z,75.00
2019-04-03T05:23:43.012Z,74.00
2019-04-03T05:26:21.085Z,75.50
2019-04-03T05:28:57.566Z,75.20
2019-04-03T05:31:30.547Z,76.40
2019-04-03T05:34:04.267Z,76.40
2019-04-03T05:36:37.984Z,76.70
2019-04-03T05:39:11.420Z,77.30
2019-04-03T05:41:44.736Z,77.40
2019-04-03T05:44:17.705Z,78.50
2019-04-03T05:46:50.998Z,79.80
2019-04-03T05:49:24.067Z,79.10
2019-04-03T05:51:57.216Z,79.50
2019-04-03T05:54:30.436Z,79.70
2019-04-03T05:57:05.281Z,80.00
2019-04-03T05:59:38.425Z,80.00
2019-04-03T06:02:15.737Z,80.30
2019-04-03T06:04:46.032Z,80.70
2019-04-03T06:07:23.142Z,81.20
2019-04-03T06:09:58.302Z,80.90
2019-04-03T06:12:32.352Z,82.10
2019-04-03T06:15:09.179Z,80.40
2019-04-03T06:17:42.609Z,80.20
2019-04-03T06:20:21.242Z,81.10
2019-04-03T06:22:56.326Z,80.90
2019-04-03T06:25:31.504Z,81.10
2019-04-03T06:28:03.967Z,81.70
2019-04-03T06:30:47.184Z,81.50
2019-04-03T06:33:20.655Z,82.10
2019-04-03T06:35:53.567Z,81.60
2019-04-03T06:38:26.993Z,81.20
2019-04-03T06:40:59.950Z,81.50
2019-04-03T06:43:33.207Z,81.10
2019-04-03T06:46:06.314Z,79.30
2019-04-03T06:48:39.656Z,79.60
2019-04-03T06:51:14.048Z,79.30
2019-04-03T06:53:47.409Z,79.00
2019-04-03T06:56:20.348Z,79.20
2019-04-03T06:58:53.909Z,80.00
2019-04-03T07:01:26.988Z,79.60
2019-04-03T07:04:01.019Z,79.40
2019-04-03T07:06:33.950Z,79.50
2019-04-03T07:09:16.079Z,79.70
2019-04-03T07:11:43.523Z,80.30
2019-04-03T07:14:16.871Z,80.70
2019-04-03T07:16:50.029Z,80.80
2019-04-03T07:19:23.265Z,80.70
2019-04-03T07:22:03.454Z,81.10
2019-04-03T07:24:36.915Z,81.40
2019-04-03T07:27:10.389Z,82.10
2019-04-03T07:29:44.296Z,82.80
2019-04-03T07:32:17.255Z,84.30
2019-04-03T07:34:50.552Z,84.20
2019-04-03T07:37:23.700Z,85.00
2019-04-03T07:39:58.670Z,85.60
2019-04-03T07:42:31.584Z,86.10
2019-04-03T07:45:04.992Z,86.70
2019-04-03T07:47:38.658Z,87.30
2019-04-03T07:50:12.188Z,87.70
2019-04-03T07:52:48.952Z,88.00
2019-04-03T07:55:24.278Z,88.30
2019-04-03T07:57:58.032Z,88.90
2019-04-03T08:00:32.529Z,89.50
2019-04-03T08:03:05.288Z,89.70
2019-04-03T08:05:38.478Z,89.80
2019-04-03T08:08:11.804Z,89.80
2019-04-03T08:10:45.193Z,90.00
2019-04-03T08:13:18.508Z,90.10
2019-04-03T08:15:52.333Z,90.10
2019-04-03T08:18:25.460Z,90.40
2019-04-03T08:21:01.479Z,90.20
2019-04-03T08:23:34.682Z,90.30
2019-04-03T08:26:11.252Z,90.60
2019-04-03T08:28:42.991Z,90.70
2019-04-03T08:31:16.754Z,90.80
2019-04-03T08:33:50.144Z,90.80
2019-04-03T08:36:26.073Z,90.90
2019-04-03T08:38:58.905Z,90.80
2019-04-03T08:41:32.288Z,90.80
2019-04-03T08:44:09.147Z,90.90
2019-04-03T08:46:42.788Z,91.10
2019-04-03T08:49:14.276Z,91.10
2019-04-03T08:51:47.814Z,91.20
2019-04-03T08:54:20.778Z,91.30
2019-04-03T08:56:54.366Z,91.30
2019-04-03T08:59:28.729Z,91.40
2019-04-03T09:02:03.030Z,91.60
2019-04-03T09:04:36.516Z,91.70
2019-04-03T09:07:09.960Z,91.80
2019-04-03T09:09:42.940Z,92.00
2019-04-03T09:12:16.368Z,92.10
2019-04-03T09:14:49.773Z,92.20
2019-04-03T09:17:23.659Z,92.80
2019-04-03T09:19:57.368Z,92.50
2019-04-03T09:22:30.840Z,92.60
2019-04-03T09:25:03.744Z,92.70
2019-04-03T09:27:37.953Z,92.90
2019-04-03T09:30:13.790Z,93.10
2019-04-03T09:32:46.991Z,93.40
2019-04-03T09:35:20.840Z,93.80
2019-04-03T09:37:54.306Z,93.60
2019-04-03T09:40:27.336Z,93.70
2019-04-03T09:43:00.624Z,93.60
2019-04-03T09:45:33.838Z,93.70
2019-04-03T09:48:10.949Z,93.70
2019-04-03T09:50:47.187Z,93.90
2019-04-03T09:53:20.386Z,93.90
2019-04-03T09:55:53.773Z,94.00
2019-04-03T09:58:27.572Z,94.20
2019-04-03T10:01:00.725Z,94.30
2019-04-03T10:03:34.875Z,94.50
2019-04-03T10:06:08.012Z,94.60
2019-04-03T10:08:41.564Z,94.60
2019-04-03T10:11:15.187Z,94.90
2019-04-03T10:13:48.972Z,95.00
2019-04-03T10:16:22.116Z,95.20
2019-04-03T10:18:57.101Z,95.40
2019-04-03T10:21:32.856Z,95.50
2019-04-03T10:24:04.811Z,95.50
2019-04-03T10:26:39.927Z,95.50
2019-04-03T10:29:12.452Z,95.60
2019-04-03T10:31:45.462Z,95.70
2019-04-03T10:34:19.317Z,95.80
2019-04-03T10:36:53.126Z,95.80
2019-04-03T10:39:26.566Z,96.00
2019-04-03T10:42:00.381Z,96.00
2019-04-03T10:44:34.274Z,96.00
2019-04-03T10:47:07.370Z,96.20
2019-04-03T10:49:41.440Z,96.20
2019-04-03T10:52:15.146Z,96.30
2019-04-03T10:54:49.321Z,96.30
2019-04-03T10:57:22.426Z,96.40
2019-04-03T10:59:57.492Z,96.20
2019-04-03T11:02:31.024Z,96.30
2019-04-03T11:05:04.061Z,96.30
2019-04-03T11:07:36.996Z,96.10
2019-04-03T11:10:10.899Z,96.20
2019-04-03T11:12:44.285Z,96.30
2019-04-03T11:15:18.180Z,96.20
2019-04-03T11:17:51.489Z,96.20
2019-04-03T11:20:44.330Z,96.40
2019-04-03T11:23:18.097Z,96.40
2019-04-03T11:25:52.551Z,96.60
2019-04-03T11:28:26.163Z,96.80
2019-04-03T11:31:01.166Z,96.70
2019-04-03T11:33:33.598Z,96.60
2019-04-03T11:36:06.921Z,96.60
2019-04-03T11:38:40.217Z,96.80
2019-04-03T11:41:18.016Z,96.90
2019-04-03T11:43:47.956Z,96.90
2019-04-03T11:46:22.140Z,97.10
2019-04-03T11:48:55.385Z,97.20
2019-04-03T11:51:29.708Z,97.20
2019-04-03T11:54:07.024Z,97.30
2019-04-03T11:56:38.551Z,97.30
2019-04-03T11:59:11.784Z,97.30
2019-04-03T12:01:45.297Z,97.40
2019-04-03T12:04:18.498Z,97.40
2019-04-03T12:06:52.677Z,97.50
2019-04-03T12:09:25.971Z,97.50
2019-04-03T12:11:59.752Z,97.60
2019-04-03T12:14:32.843Z,97.50
2019-04-03T12:17:06.016Z,97.50
2019-04-03T12:19:39.069Z,97.60
2019-04-03T12:22:12.652Z,98.10
2019-04-03T12:24:45.825Z,98.30
2019-04-03T12:27:18.906Z,98.40
2019-04-03T12:29:54.229Z,98.50
2019-04-03T12:32:36.565Z,98.70
2019-04-03T12:35:00.167Z,98.70
2019-04-03T12:37:33.409Z,98.60
2019-04-03T12:40:06.406Z,98.60
2019-04-03T12:42:40.004Z,98.60
2019-04-03T12:45:13.052Z,98.40
2019-04-03T12:47:46.630Z,98.30
2019-04-03T12:50:20.465Z,98.00
2019-04-03T12:52:53.929Z,97.90
2019-04-03T12:55:26.933Z,97.90
2019-04-03T12:58:00.418Z,97.90
2019-04-03T13:00:33.692Z,97.80
2019-04-03T13:03:13.800Z,98.10
2019-04-03T13:05:48.588Z,97.80
2019-04-03T13:08:21.768Z,98.00
2019-04-03T13:10:54.920Z,98.10
2019-04-03T13:13:28.859Z,98.20
2019-04-03T13:16:01.883Z,98.20
2019-04-03T13:18:35.283Z,98.30
2019-04-03T13:21:09.223Z,98.40
2019-04-03T13:23:45.082Z,98.70
2019-04-03T13:26:16.461Z,98.90
2019-04-03T13:28:50.044Z,98.90
2019-04-03T13:31:23.098Z,99.00
2019-04-03T13:33:56.908Z,99.00
2019-04-03T13:36:29.849Z,99.00
2019-04-03T13:39:03.356Z,99.00
2019-04-03T13:41:36.764Z,99.10
2019-04-03T13:44:11.334Z,99.00
2019-04-03T13:46:44.502Z,98.90
2019-04-03T13:49:18.633Z,98.90
2019-04-03T13:51:52.735Z,98.90
2019-04-03T13:54:26.703Z,98.80
2019-04-03T13:57:00.342Z,99.10
2019-04-03T13:59:34.013Z,99.20
2019-04-03T14:02:07.014Z,99.20
2019-04-03T14:04:40.278Z,99.20
2019-04-03T14:07:13.444Z,99.20
2019-04-03T14:09:52.253Z,99.20
2019-04-03T14:12:21.315Z,99.20
2019-04-03T14:14:54.729Z,99.30
2019-04-03T14:17:28.228Z,99.70
2019-04-03T14:20:01.721Z,99.50
2019-04-03T14:22:35.321Z,99.60
2019-04-03T14:25:19.340Z,99.60
2019-04-03T14:27:44.779Z,99.60
2019-04-03T14:30:18.792Z,99.80
2019-04-03T14:32:53.424Z,99.80
2019-04-03T14:38:00.419Z,99.90
2019-04-03T14:40:34.215Z,99.90
2019-04-03T14:43:07.092Z,99.90
2019-04-03T14:45:40.361Z,99.80
2019-04-03T14:48:13.317Z,99.80
2019-04-03T14:50:46.820Z,99.90
2019-04-03T14:53:20.158Z,99.90
2019-04-03T14:55:54.194Z,99.90
2019-04-03T14:58:27.591Z,99.90
2019-04-03T15:01:01.233Z,99.90
2019-04-03T15:03:34.876Z,99.90
2019-04-03T15:06:09.703Z,99.90
2019-04-03T15:08:42.769Z,99.90
2019-04-03T15:11:16.773Z,99.90
2019-04-03T15:13:51.173Z,99.90
2019-04-03T15:16:24.574Z,99.90
2019-04-03T15:18:57.951Z,99.90
2019-04-03T15:21:31.825Z,99.90
2019-04-03T15:24:04.688Z,99.90
2019-04-03T15:26:38.475Z,99.90
2019-04-03T15:29:11.565Z,99.90
2019-04-03T15:31:45.840Z,99.90
2019-04-03T15:34:18.950Z,99.90
2019-04-03T15:36:53.614Z,99.90
2019-04-03T15:39:26.574Z,99.90
2019-04-03T15:41:59.850Z,99.90
2019-04-03T15:44:33.255Z,99.90
2019-04-03T15:47:09.266Z,99.90
2019-04-03T15:49:41.007Z,99.90
2019-04-03T15:52:14.435Z,99.90
2019-04-03T15:54:47.268Z,99.90
2019-04-03T15:57:21.186Z,99.90
2019-04-03T15:59:54.440Z,99.90
2019-04-03T16:02:28.622Z,99.90
2019-04-03T16:05:01.730Z,99.90
2019-04-03T16:07:35.137Z,99.90
2019-04-03T16:10:09.356Z,99.90
2019-04-03T16:12:43.509Z,99.90
2019-04-03T16:15:16.776Z,99.90
2019-04-03T16:17:50.043Z,99.90
2019-04-03T16:20:23.585Z,99.90
2019-04-03T16:22:56.780Z,99.90
2019-04-03T16:25:30.293Z,99.90
2019-04-03T16:28:04.089Z,99.90
2019-04-03T16:30:37.672Z,99.90
2019-04-03T16:33:20.840Z,99.90
2019-04-03T16:35:45.916Z,99.90
2019-04-03T16:38:19.267Z,99.90
2019-04-03T16:40:53.242Z,99.90
2019-04-03T16:43:26.550Z,99.90
2019-04-03T16:45:59.451Z,99.90
2019-04-03T16:48:33.319Z,99.90
2019-04-03T16:51:06.033Z,99.90
2019-04-03T16:53:40.124Z,99.90
2019-04-03T16:56:13.380Z,99.90
2019-04-03T16:58:46.920Z,99.90
2019-04-03T17:01:20.313Z,99.90
2019-04-03T17:03:53.759Z,99.90
2019-04-03T17:06:27.302Z,99.90
2019-04-03T17:09:01.128Z,99.90
2019-04-03T17:11:33.894Z,99.90
2019-04-03T17:14:07.837Z,99.90
2019-04-03T17:16:41.331Z,99.90
2019-04-03T17:19:15.799Z,99.90
2019-04-03T17:21:50.422Z,99.90
2019-04-03T17:24:23.776Z,99.90
2019-04-03T17:26:59.410Z,99.90
2019-04-03T17:29:31.294Z,99.90
2019-04-03T17:32:07.172Z,99.90
2019-04-03T17:34:42.025Z,99.90
2019-04-03T17:37:12.785Z,99.90
2019-04-03T17:39:46.081Z,99.90
2019-04-03T17:42:19.270Z,99.90
2019-04-03T17:44:52.640Z,99.90
2019-04-03T17:47:25.486Z,99.90
2019-04-03T17:49:59.289Z,99.90
2019-04-03T17:52:35.995Z,99.90
2019-04-03T17:55:10.051Z,99.90
2019-04-03T17:57:45.318Z,99.90
2019-04-03T18:00:20.917Z,99.90
2019-04-03T18:02:53.619Z,99.90
2019-04-03T18:05:27.325Z,99.90
2019-04-03T18:08:00.318Z,99.90
2019-04-03T18:10:33.573Z,99.90
2019-04-03T18:13:06.730Z,99.90
2019-04-03T18:15:40.316Z,99.90
2019-04-03T18:18:13.325Z,99.90
2019-04-03T18:20:46.750Z,99.90
2019-04-03T18:23:19.889Z,99.90
2019-04-03T18:25:54.042Z,99.90
2019-04-03T18:28:27.100Z,99.90
2019-04-03T18:31:00.292Z,99.90
2019-04-03T18:33:33.510Z,99.90
2019-04-03T18:36:06.990Z,99.90
2019-04-03T18:38:40.464Z,99.90
2019-04-03T18:41:16.603Z,99.90
2019-04-03T18:43:48.204Z,99.90
2019-04-03T18:46:31.561Z,99.90
2019-04-03T18:49:00.876Z,99.90
2019-04-03T18:51:30.433Z,99.90
2019-04-03T18:54:03.433Z,99.90
2019-04-03T18:56:36.727Z,99.90
2019-04-03T18:59:09.756Z,99.90
2019-04-03T19:01:42.800Z,99.90
2019-04-03T19:04:15.584Z,99.90
2019-04-03T19:06:49.004Z,99.90
2019-04-03T19:09:22.242Z,99.90
2019-04-03T19:12:07.701Z,99.90
2019-04-03T19:14:32.068Z,99.90
2019-04-03T19:17:04.421Z,99.90
2019-04-03T19:19:37.899Z,99.90
2019-04-03T19:22:11.147Z,99.90
2019-04-03T19:24:44.081Z,99.90
2019-04-03T19:27:17.294Z,99.90
2019-04-03T19:29:50.304Z,99.90
2019-04-03T19:32:24.288Z,99.90
2019-04-03T19:34:57.408Z,99.90
2019-04-03T19:37:33.459Z,99.90
2019-04-03T19:40:04.721Z,99.90
2019-04-03T19:42:37.771Z,99.90
2019-04-03T19:45:12.878Z,99.90
2019-04-03T19:47:45.288Z,99.90
2019-04-03T19:50:18.225Z,99.90
2019-04-03T19:52:51.862Z,99.90
2019-04-03T19:55:24.812Z,99.90
2019-04-03T19:57:58.323Z,99.90
2019-04-03T20:00:33.044Z,99.90
2019-04-03T20:03:05.715Z,99.90
2019-04-03T20:05:38.759Z,99.90
2019-04-03T20:08:11.983Z,99.90
2019-04-03T20:10:44.972Z,99.90
2019-04-03T20:13:18.327Z,99.90
2019-04-03T20:15:53.753Z,99.90
2019-04-03T20:18:27.374Z,99.90
2019-04-03T20:21:01.931Z,99.90
2019-04-03T20:23:35.122Z,99.90
2019-04-03T20:26:08.139Z,99.90
2019-04-03T20:28:41.221Z,99.90
2019-04-03T20:31:14.084Z,99.90
2019-04-03T20:33:47.443Z,99.90
2019-04-03T20:36:20.871Z,99.90
2019-04-03T20:38:54.207Z,99.90
2019-04-03T20:41:27.378Z,99.90
2019-04-03T20:44:00.655Z,99.90
2019-04-03T20:46:33.636Z,99.90
2019-04-03T20:49:06.759Z,99.90
2019-04-03T20:54:30.605Z,99.90
2019-04-03T20:57:04.006Z,99.90
2019-04-03T20:59:37.388Z,99.90
2019-04-03T21:02:10.325Z,99.40
2019-04-03T21:04:46.459Z,99.80
2019-04-03T21:07:37.356Z,99.80
2019-04-03T21:10:11.361Z,99.90
2019-04-03T21:12:44.150Z,99.90
2019-04-03T21:15:17.395Z,99.90
2019-04-03T21:17:50.570Z,99.90
2019-04-03T21:20:24.860Z,99.90
2019-04-03T21:22:57.881Z,99.80
2019-04-03T21:25:31.287Z,99.90
2019-04-03T21:28:04.359Z,99.90
2019-04-03T21:30:38.140Z,99.90
2019-04-03T21:33:11.239Z,99.90
2019-04-03T21:35:44.521Z,99.90
2019-04-03T21:38:18.056Z,99.90
2019-04-03T21:40:51.268Z,99.20
2019-04-03T21:43:24.385Z,98.50
2019-04-03T21:45:58.759Z,97.30
2019-04-03T21:48:31.851Z,96.10
2019-04-03T21:51:05.104Z,95.20
2019-04-03T21:53:38.042Z,95.40
2019-04-03T21:56:11.296Z,95.80
2019-04-03T21:58:44.120Z,96.40
2019-04-03T22:01:24.209Z,96.90
2019-04-03T22:03:57.318Z,97.60
2019-04-03T22:06:30.486Z,97.70
2019-04-03T22:09:03.920Z,97.70
2019-04-03T22:11:36.919Z,97.40
2019-04-03T22:14:11.067Z,97.50
2019-04-03T22:16:44.470Z,98.00
2019-04-03T22:19:17.513Z,97.90
2019-04-03T22:21:50.731Z,97.90
2019-04-03T22:24:23.910Z,98.00
2019-04-03T22:26:57.255Z,97.80
2019-04-03T22:29:30.202Z,97.60
2019-04-03T22:32:03.705Z,97.10
2019-04-03T22:34:37.682Z,96.70
2019-04-03T22:37:11.032Z,96.30
2019-04-03T22:39:44.014Z,95.60
2019-04-03T22:42:17.530Z,95.70
2019-04-03T22:44:50.768Z,95.80
2019-04-03T22:47:25.034Z,95.70
2019-04-03T22:50:00.127Z,96.10
2019-04-03T22:52:33.296Z,96.50
2019-04-03T22:55:06.296Z,97.30
2019-04-03T22:57:39.549Z,96.80
2019-04-03T23:00:12.780Z,96.70
2019-04-03T23:02:46.038Z,96.00
2019-04-03T23:05:18.968Z,95.60
2019-04-03T23:07:52.642Z,95.80
2019-04-03T23:10:25.777Z,96.30
2019-04-03T23:12:59.109Z,96.60
2019-04-03T23:15:34.797Z,96.60
2019-04-03T23:18:07.967Z,96.10
2019-04-03T23:20:42.049Z,96.20
2019-04-03T23:23:15.288Z,96.70
2019-04-03T23:25:48.236Z,96.50
2019-04-03T23:28:21.424Z,95.50
2019-04-03T23:30:57.209Z,94.30
2019-04-03T23:33:30.680Z,94.60
2019-04-03T23:36:03.835Z,93.80
2019-04-03T23:38:37.056Z,94.10
2019-04-03T23:41:10.077Z,93.40
2019-04-03T23:43:43.923Z,93.80
2019-04-03T23:46:17.012Z,94.00
2019-04-03T23:48:50.380Z,94.20
2019-04-03T23:51:23.919Z,94.30
2019-04-03T23:53:57.898Z,94.50
2019-04-03T23:56:30.831Z,94.70
2019-04-03T23:59:04.477Z,93.90
